createdAt,value
2022-12-05T17:27:53.299Z,1006.03
2022-12-05T17:28:53.277Z,1006.02
2022-12-05T17:29:53.276Z,1006.06
2022-12-05T17:30:53.280Z,1006.08
2022-12-05T17:31:53.376Z,1006.04
2022-12-05T17:32:53.283Z,1006.07
2022-12-05T17:33:53.284Z,1006.06
2022-12-05T17:34:53.286Z,1006.06
2022-12-05T17:35:53.291Z,1006.08
2022-12-05T17:36:53.286Z,1006.08
2022-12-05T17:37:53.300Z,1006.09
2022-12-05T17:38:53.289Z,1006.03
2022-12-05T17:39:53.295Z,1006.08
2022-12-05T17:40:53.305Z,1006.06
2022-12-05T17:41:53.299Z,1006.08
2022-12-05T17:42:53.299Z,1006.1
2022-12-05T17:43:53.332Z,1006.07
2022-12-05T17:44:53.308Z,1006.08
2022-12-05T17:45:53.315Z,1006.08
2022-12-05T17:46:53.354Z,1006.11
2022-12-05T17:47:53.314Z,1006.15
2022-12-05T17:48:53.313Z,1006.12
2022-12-05T17:49:53.318Z,1006.18
2022-12-05T17:50:53.319Z,1006.17
2022-12-05T17:52:20.375Z,1006.18
2022-12-05T18:21:54.346Z,1006.16
2022-12-05T18:22:54.336Z,1006.18
2022-12-05T18:23:54.329Z,1006.23
2022-12-05T18:24:54.347Z,1006.23
2022-12-05T18:25:54.335Z,1006.27
2022-12-05T18:26:54.343Z,1006.24
2022-12-05T18:27:54.347Z,1006.25
2022-12-05T18:28:54.348Z,1006.19
2022-12-05T18:29:54.351Z,1006.22
2022-12-05T18:30:54.348Z,1006.23
2022-12-05T18:31:54.417Z,1006.21
2022-12-05T18:32:54.366Z,1006.28
2022-12-05T18:33:54.365Z,1006.27
2022-12-05T18:34:54.361Z,1006.29
2022-12-05T18:35:54.361Z,1006.24
2022-12-05T18:36:54.371Z,1006.27
2022-12-05T18:37:54.591Z,1006.26
2022-12-05T18:38:54.375Z,1006.27
2022-12-05T18:39:54.375Z,1006.27
2022-12-05T18:40:54.375Z,1006.26
2022-12-05T18:41:54.381Z,1006.27
2022-12-05T18:42:54.391Z,1006.27
2022-12-05T18:43:54.391Z,1006.3
2022-12-05T18:44:54.386Z,1006.26
2022-12-05T18:45:54.453Z,1006.29
2022-12-05T18:46:54.423Z,1006.31
2022-12-05T18:48:00.537Z,1006.3
2022-12-05T18:48:57.782Z,1006.31
2022-12-05T18:49:54.404Z,1006.3
2022-12-05T18:50:54.414Z,1006.29
2022-12-05T18:51:54.421Z,1006.32
2022-12-05T18:52:54.411Z,1006.32
2022-12-05T18:53:54.448Z,1006.33
2022-12-05T18:55:09.763Z,1006.32
2022-12-05T18:56:33.170Z,1006.31
2022-12-05T18:57:33.162Z,1006.31
2022-12-05T18:58:33.189Z,1006.35
2022-12-05T18:59:33.181Z,1006.35
2022-12-05T19:00:33.180Z,1006.35
2022-12-05T19:01:33.248Z,1006.37
2022-12-05T19:02:33.302Z,1006.39
2022-12-05T19:03:33.377Z,1006.43
2022-12-05T19:04:33.193Z,1006.46
2022-12-05T19:05:33.795Z,1006.43
2022-12-05T19:06:33.208Z,1006.47
2022-12-05T19:07:33.263Z,1006.5
2022-12-05T19:08:33.197Z,1006.49
2022-12-05T19:09:33.222Z,1006.49
2022-12-05T19:10:33.202Z,1006.5
2022-12-05T19:11:33.220Z,1006.53
2022-12-05T19:12:33.211Z,1006.54
2022-12-05T19:13:33.215Z,1006.51
2022-12-05T19:14:33.319Z,1006.54
2022-12-05T19:15:33.226Z,1006.48
2022-12-05T19:16:33.310Z,1006.51
2022-12-05T19:17:33.229Z,1006.5
2022-12-05T19:18:33.224Z,1006.45
2022-12-05T19:19:33.235Z,1006.47
2022-12-05T19:20:33.238Z,1006.42
2022-12-05T19:21:33.251Z,1006.4
2022-12-05T19:22:33.245Z,1006.37
2022-12-05T19:23:33.855Z,1006.39
2022-12-05T19:24:33.265Z,1006.37
2022-12-05T19:25:33.321Z,1006.37
2022-12-05T19:26:33.248Z,1006.35
2022-12-05T19:27:33.255Z,1006.39
2022-12-05T19:28:33.255Z,1006.34
2022-12-05T19:29:33.254Z,1006.41
2022-12-05T19:30:33.264Z,1006.41
2022-12-05T19:31:33.336Z,1006.41
2022-12-05T19:32:36.842Z,1006.43
2022-12-05T19:33:33.273Z,1006.42
2022-12-05T19:34:33.292Z,1006.42
2022-12-05T19:35:33.497Z,1006.42
2022-12-05T19:36:33.281Z,1006.39
2022-12-05T19:37:33.273Z,1006.4
2022-12-05T19:38:33.285Z,1006.39
2022-12-05T19:39:33.805Z,1006.37
2022-12-05T19:40:33.285Z,1006.33
2022-12-05T19:41:33.331Z,1006.34
2022-12-05T19:42:33.293Z,1006.36
2022-12-05T19:43:33.304Z,1006.35
2022-12-05T19:44:33.304Z,1006.37
2022-12-05T19:45:33.393Z,1006.39
2022-12-05T19:46:33.305Z,1006.38
2022-12-05T19:47:33.310Z,1006.41
2022-12-05T19:48:33.340Z,1006.43
2022-12-05T19:49:33.323Z,1006.43
2022-12-05T19:50:33.319Z,1006.44
2022-12-05T19:51:33.326Z,1006.44
2022-12-05T19:52:33.331Z,1006.45
2022-12-05T19:53:33.323Z,1006.47
2022-12-05T19:54:33.331Z,1006.44
2022-12-05T19:55:33.339Z,1006.48
2022-12-05T19:56:33.338Z,1006.47
2022-12-05T19:57:33.436Z,1006.45
2022-12-05T19:58:33.353Z,1006.45
2022-12-05T19:59:33.356Z,1006.48
2022-12-05T20:00:33.356Z,1006.47
2022-12-05T20:01:33.456Z,1006.47
2022-12-05T20:02:35.975Z,1006.52
2022-12-05T20:03:33.364Z,1006.49
2022-12-05T20:04:33.364Z,1006.45
2022-12-05T20:05:33.366Z,1006.44
2022-12-05T20:06:33.365Z,1006.48
2022-12-05T20:07:33.434Z,1006.48
2022-12-05T20:08:33.394Z,1006.41
2022-12-05T20:09:33.390Z,1006.49
2022-12-05T20:10:33.386Z,1006.52
2022-12-05T20:11:33.382Z,1006.48
2022-12-05T20:12:33.383Z,1006.47
2022-12-05T20:13:48.981Z,1006.48
2022-12-05T20:14:33.399Z,1006.47
2022-12-05T20:15:33.400Z,1006.48
2022-12-05T20:16:33.418Z,1006.46
2022-12-05T20:17:33.405Z,1006.48
2022-12-05T20:18:33.409Z,1006.43
2022-12-05T20:19:33.411Z,1006.41
2022-12-05T20:20:33.412Z,1006.4
2022-12-05T20:21:33.423Z,1006.37
2022-12-05T20:22:33.416Z,1006.37
2022-12-05T20:23:33.423Z,1006.34
2022-12-05T20:24:33.425Z,1006.36
2022-12-05T20:25:33.436Z,1006.34
2022-12-05T20:26:33.447Z,1006.33
2022-12-05T20:27:33.471Z,1006.32
2022-12-05T20:28:33.459Z,1006.3
2022-12-05T20:29:33.483Z,1006.33
2022-12-05T20:30:33.502Z,1006.34
2022-12-05T20:31:33.445Z,1006.35
2022-12-05T20:32:33.455Z,1006.36
2022-12-05T20:33:33.464Z,1006.38
2022-12-05T20:34:33.471Z,1006.37
2022-12-05T20:35:33.461Z,1006.42
2022-12-05T20:36:33.466Z,1006.42
2022-12-05T20:37:35.471Z,1006.44
2022-12-05T20:38:33.469Z,1006.44
2022-12-05T20:39:33.476Z,1006.43
2022-12-05T20:40:33.485Z,1006.45
2022-12-05T20:41:33.586Z,1006.44
2022-12-05T20:42:33.484Z,1006.38
2022-12-05T20:43:33.492Z,1006.4
2022-12-05T20:44:33.490Z,1006.42
2022-12-05T20:45:33.522Z,1006.4
2022-12-05T20:46:33.584Z,1006.41
2022-12-05T20:47:33.501Z,1006.38
2022-12-05T20:48:33.503Z,1006.37
2022-12-05T20:49:33.525Z,1006.37
2022-12-05T20:50:33.520Z,1006.37
2022-12-05T20:51:33.514Z,1006.37
2022-12-05T20:52:33.515Z,1006.38
2022-12-05T20:53:33.526Z,1006.41
2022-12-05T20:54:33.548Z,1006.37
2022-12-05T20:55:33.530Z,1006.37
2022-12-05T20:56:33.746Z,1006.37
2022-12-05T20:57:33.547Z,1006.34
2022-12-05T20:58:33.684Z,1006.39
2022-12-05T20:59:33.561Z,1006.35
2022-12-05T21:00:33.543Z,1006.29
2022-12-05T21:01:33.625Z,1006.35
2022-12-05T21:02:33.639Z,1006.3
2022-12-05T21:03:33.784Z,1006.27
2022-12-05T21:04:33.560Z,1006.27
2022-12-05T21:05:33.563Z,1006.27
2022-12-05T21:06:33.558Z,1006.27
2022-12-05T21:07:33.585Z,1006.26
2022-12-05T21:08:33.564Z,1006.25
2022-12-05T21:09:33.569Z,1006.2
2022-12-05T21:10:33.568Z,1006.25
2022-12-05T21:11:33.574Z,1006.24
2022-12-05T21:12:33.576Z,1006.2
2022-12-05T21:13:33.589Z,1006.24
2022-12-05T21:14:33.591Z,1006.21
2022-12-05T21:15:33.717Z,1006.24
2022-12-05T21:16:33.671Z,1006.25
2022-12-05T21:17:33.663Z,1006.23
2022-12-05T21:18:33.600Z,1006.22
2022-12-05T21:19:33.608Z,1006.2
2022-12-05T21:20:36.381Z,1006.27
2022-12-05T21:21:33.616Z,1006.24
2022-12-05T21:22:33.629Z,1006.31
2022-12-05T21:23:33.617Z,1006.26
2022-12-05T21:24:33.626Z,1006.31
2022-12-05T21:25:33.693Z,1006.29
2022-12-05T21:26:33.636Z,1006.29
2022-12-05T21:27:33.635Z,1006.32
2022-12-05T21:28:33.647Z,1006.32
2022-12-05T21:29:33.638Z,1006.29
2022-12-05T21:30:33.642Z,1006.24
2022-12-05T21:31:33.728Z,1006.23
2022-12-05T21:32:33.711Z,1006.26
2022-12-05T21:33:33.672Z,1006.21
2022-12-05T21:34:33.661Z,1006.21
2022-12-05T21:35:33.662Z,1006.18
2022-12-05T21:36:33.664Z,1006.22
2022-12-05T21:37:33.661Z,1006.13
2022-12-05T21:38:33.667Z,1006.12
2022-12-05T21:39:33.677Z,1006.15
2022-12-05T21:40:33.683Z,1006.1
2022-12-05T21:41:33.681Z,1006.11
2022-12-05T21:42:33.685Z,1006.11
2022-12-05T21:43:33.684Z,1006.08
2022-12-05T21:44:33.688Z,1006.11
2022-12-05T21:45:35.664Z,1006.11
2022-12-05T21:46:33.793Z,1006.12
2022-12-05T21:47:33.698Z,1006.06
2022-12-05T21:48:33.705Z,1006.06
2022-12-05T21:49:33.731Z,1006.07
2022-12-05T21:50:33.908Z,1006.06
2022-12-05T21:51:33.708Z,1006.1
2022-12-05T21:52:33.754Z,1006.08
2022-12-05T21:53:33.758Z,1006.11
2022-12-05T21:54:33.772Z,1006.13
2022-12-05T21:55:33.724Z,1006.11
2022-12-05T21:56:33.729Z,1006.11
2022-12-05T21:57:33.733Z,1006.1
2022-12-05T21:58:35.903Z,1006.12
2022-12-05T21:59:33.738Z,1006.1
2022-12-05T22:00:34.348Z,1006.11
2022-12-05T22:01:33.761Z,1006.07
2022-12-05T22:02:33.818Z,1006.09
2022-12-05T22:03:33.754Z,1006.1
2022-12-05T22:04:33.758Z,1006.1
2022-12-05T22:05:33.781Z,1006.11
2022-12-05T22:06:34.066Z,1006.11
